Bonney Lake, Washington
Current Conditions -  °F | °C
As of 5:58 PM on Thursday 20 Nov 2014 (Local Time) from KTCM Reporting Station
Overcast Overcast  
Wind Chill: 49°   Ceiling: 4000
Heat Index: 49°   Visibility: 10mi
Dew Point: 49°   Wind: 2mph
Humidity: 100%   Direction: 320°NW
Pressure: 29.94"   Gusts: NA
Location:  47.17°N, 122.17°W
Report Text: KTCM 210158Z AUTO 32002KT 10SM OVC040 10/10 A2994 RMK AO2 SLP144 T00950095 $
Loading
Personal Weather Stations






























Interactive Weather Map New forecast layout! Learn more

10-Day Weather Forecast

Advertisements
Track Severe Weather on mobile